アラート の空港の天気 - METARとTAF

Alert Airport ( CYLT / YLT ) - カナダ ヌナブト準州アラート
飛行場実況気象(Metar)
観測時間11/26 22:00 EST (11/27 03:00 UTC)
風向・風速静穏 0m/s
視程10km以上
天気現象弱い雪
少しの雲 雲底高度 1830m
気温-29℃
湿度68%
気圧1010.4hPa
METARCYLT 270300Z 00000KT 7SM -SN FEW060 M29/M33 A2982 RMK SC2 LAST OBS /NEXT 281200 UTC SLP104
過去の天気等 Google飛行場航空写真 Wunderground天気予報

過去48時間のMETAR

飛行場予報(TAF)
発表時間: 11/26 18:40 EST (11/26 23:40 UTC)
予報対象時間: 26日19時 EST ~ 27日7時 EST
風向・風速不定 2m/s
視程10km以上
天気現象弱い雪
全天の4割程度の雲 雲底高度 610m
全天の8割程度の雲 雲底高度 1220m
26日19時 EST ~ 26日22時 EST に一時的に
視程8050m
天気現象弱い雪
26日22時 EST から
風向・風速不定 2m/s
視程10km以上
全天の8割程度の雲 雲底高度 910m
TAF CYLT 262340Z 2700/2712 VRB03KT P6SM -SN SCT020 BKN040
TEMPO 2700/2703 5SM -SN
FM270300 VRB03KT P6SM BKN030 RMK NXT FCST BY 270600Z